Warning: Javascript must be enabled to use all the features on this page!


Page Loading - Please Wait...

Click to hideNews Bulletins

Peak Streamflow for the Nation

USGS 11290000 TUOLUMNE R A MODESTO CA

Stanislaus County, California
Hydrologic Unit Code 18040009
Latitude  37°37'38", Longitude 120°59'00" NAD27
Drainage area 1,884  square miles
Gage datum 60 feet above NGVD29
Output formats
Table
Graph
Tab-separated file
peakfq (watstore) format
Reselect output format
Water
Year
Date Gage
Height
(feet)
Stream-
flow
(cfs)
1895 1895-02-13 20.70 19,600
1940 1940-03-27 63.10 18,2006
1943 1943-03-11 59.62 17,4006
1944 1944-03-05 44.76 3,4106
1945 1945-02-05 51.32 8,0706
1946 1946-05-22 50.64 7,6406
1947 1946-11-23 42.13 2,2206
1948 1948-06-18 46.58 4,5706
1949 1949-03-05 43.54 3,1206
1950 1950-06-03 50.29 6,7206
1951 1950-12-09 69.19 57,0006
1952 1952-01-26 53.46 10,5006
1953 1953-06-22 49.27 6,5106
1954 1954-03-18 49.18 6,1906
1955 1955-01-17 43.43 2,9506
1956 1955-12-25 66.43 37,6006
1957 1957-06-10 46.31 4,6106
1958 1958-04-04 56.00 12,2006
1959 1959-02-19 44.47 3,3206
1960 1960-02-11 43.08 2,2006
1961 1960-12-20 42.09 8496
1962 1962-03-10 47.76 5,3906
1963 1963-02-14 51.21 7,3406
1964 1963-12-02 44.02 2,9606
1965 1965-01-07 55.35 11,1006
1966 1965-12-31 45.77 3,9106
1967 1967-04-22 52.70 8,3706
1968 1968-02-23 45.10 3,4306
1969 1969-01-27 65.42 32,6006
1970 1970-01-22 52.65 8,6206
1971 1971-01-15 44.24 3,0706
1972 1971-10-16 42.75 2,1406
1973 1973-02-12 49.55 6,4406
1974 1974-01-08 44.99 3,5206
1975 1975-02-01 45.91 4,0906
1976 1976-01-01 45.76 3,9406
1977 1977-03-16 41.16 4456
1978 1978-05-07 48.63 5,8806
1979 1979-02-22 51.76 8,0306
1980 1980-01-18 54.40 8,7306
1981 1981-01-30 47.33 4,2506
1982 1982-04-01 56.17 10,6006
1983 1983-03-14 57.34 12,0006
1984 1984-01-06 54.19 8,5306
1985 1985-02-09 47.55 4,3306
1986 1986-03-16 55.25 9,5606
1987 1987-03-06 48.21 4,4906
1988 1988-01-18 41.32 1,1506
1989 1989-03-03 41.37 1,0106
1990 1989-10-16 40.60 6806
1991 1991-03-27 42.74 1,8306
1992 1992-02-16 45.57 3,0906
1993 1993-01-18 49.27 5,0806
1994 1993-10-08 45.57 3,0906
1995 1995-03-12 56.64 11,1006
1996 1996-05-20 51.61 6,8906
1997 1997-01-04 71.211 55,8006
1998 1998-02-04 56.58 11,8006
1999 1999-02-17 51.93 7,4706
2000 2000-03-06 51.72 7,6106
2001 2001-02-25 45.46 3,8706
2002 2002-01-03 44.21 3,1006
2003 2003-04-22 41.20 1,5206
2004 2004-03-20 43.73 2,9506
2005 2005-04-05 50.80 7,2306
2006 2006-04-05 54.38 10,7006
2007 2007-04-22 40.66 1,0706
2008 2008-01-25 43.10 2,3806
2009 2009-03-05 41.81 1,6406
2010 2010-06-14 47.99 5,2406
2011 2011-03-26 53.55 9,2506
2012 2012-05-13 42.41 1,9806
2013 2012-12-25 42.19 1,8606
2014 2014-04-18 40.98 1,2406
2015 2015-04-06 40.81 1,1606
2016 2016-03-15 43.88 2,8306
2017 2017-02-22 58.97 16,2006
2018 2018-04-07 47.26 5,0306
2019 2019-03-07 50.66 7,2106
?
  Peak Gage-Height Qualification Codes.
?
  Peak Streamflow Qualification Codes.